sensor_id;sensor_type;location;lat;lon;timestamp;temperature;humidity
1297;DHT22;641;48.492;9.184;2022-08-11T00:02:25;21.80;67.50
1297;DHT22;641;48.492;9.184;2022-08-11T00:04:51;21.80;67.10
1297;DHT22;641;48.492;9.184;2022-08-11T00:07:19;21.70;66.40
1297;DHT22;641;48.492;9.184;2022-08-11T00:09:45;21.70;67.20
1297;DHT22;641;48.492;9.184;2022-08-11T00:12:14;21.70;67.30
1297;DHT22;641;48.492;9.184;2022-08-11T00:14:41;21.70;67.90
1297;DHT22;641;48.492;9.184;2022-08-11T00:17:10;21.70;67.00
1297;DHT22;641;48.492;9.184;2022-08-11T00:19:39;21.70;67.10
1297;DHT22;641;48.492;9.184;2022-08-11T00:22:07;21.50;67.70
1297;DHT22;641;48.492;9.184;2022-08-11T00:24:36;21.50;68.10
1297;DHT22;641;48.492;9.184;2022-08-11T00:27:03;21.50;67.60
1297;DHT22;641;48.492;9.184;2022-08-11T00:29:29;21.30;69.10
1297;DHT22;641;48.492;9.184;2022-08-11T00:31:56;21.30;68.60
1297;DHT22;641;48.492;9.184;2022-08-11T00:34:26;21.20;69.20
1297;DHT22;641;48.492;9.184;2022-08-11T00:37:05;21.10;69.00
1297;DHT22;641;48.492;9.184;2022-08-11T00:39:35;21.10;71.70
1297;DHT22;641;48.492;9.184;2022-08-11T00:42:39;21.00;69.70
1297;DHT22;641;48.492;9.184;2022-08-11T00:45:31;20.80;69.40
1297;DHT22;641;48.492;9.184;2022-08-11T00:53:47;20.40;71.00
1297;DHT22;641;48.492;9.184;2022-08-11T01:08:04;20.00;72.30
1297;DHT22;641;48.492;9.184;2022-08-11T01:37:05;19.70;73.00
1297;DHT22;641;48.492;9.184;2022-08-11T01:43:00;19.70;73.30
1297;DHT22;641;48.492;9.184;2022-08-11T01:46:28;19.70;73.60
1297;DHT22;641;48.492;9.184;2022-08-11T01:51:59;19.70;73.40
1297;DHT22;641;48.492;9.184;2022-08-11T01:54:45;19.80;73.80
1297;DHT22;641;48.492;9.184;2022-08-11T01:59:56;19.70;73.00
1297;DHT22;641;48.492;9.184;2022-08-11T02:02:51;19.60;73.30
1297;DHT22;641;48.492;9.184;2022-08-11T02:08:45;19.40;73.50
1297;DHT22;641;48.492;9.184;2022-08-11T02:11:38;19.20;74.40
1297;DHT22;641;48.492;9.184;2022-08-11T02:14:30;19.20;75.70
1297;DHT22;641;48.492;9.184;2022-08-11T02:17:34;19.30;74.60
1297;DHT22;641;48.492;9.184;2022-08-11T02:20:18;19.40;75.50
1297;DHT22;641;48.492;9.184;2022-08-11T02:24:02;19.40;75.40
1297;DHT22;641;48.492;9.184;2022-08-11T02:26:17;19.50;75.40
1297;DHT22;641;48.492;9.184;2022-08-11T02:32:11;19.30;76.90
1297;DHT22;641;48.492;9.184;2022-08-11T02:35:00;19.40;76.60
1297;DHT22;641;48.492;9.184;2022-08-11T02:45:36;19.20;78.00
1297;DHT22;641;48.492;9.184;2022-08-11T02:54:26;19.00;77.70
1297;DHT22;641;48.492;9.184;2022-08-11T02:57:03;18.90;78.80
1297;DHT22;641;48.492;9.184;2022-08-11T02:59:45;18.80;78.50
1297;DHT22;641;48.492;9.184;2022-08-11T03:02:37;18.90;78.80
1297;DHT22;641;48.492;9.184;2022-08-11T03:13:18;18.40;79.40
1297;DHT22;641;48.492;9.184;2022-08-11T03:22:21;18.30;80.20
1297;DHT22;641;48.492;9.184;2022-08-11T03:25:11;18.30;79.90
1297;DHT22;641;48.492;9.184;2022-08-11T03:35:44;18.30;80.90
1297;DHT22;641;48.492;9.184;2022-08-11T03:38:15;18.70;80.80
1297;DHT22;641;48.492;9.184;2022-08-11T03:40:51;18.30;81.20
1297;DHT22;641;48.492;9.184;2022-08-11T03:43:55;18.30;81.60
1297;DHT22;641;48.492;9.184;2022-08-11T04:06:09;18.10;83.00
1297;DHT22;641;48.492;9.184;2022-08-11T04:20:29;17.70;84.30
1297;DHT22;641;48.492;9.184;2022-08-11T04:23:24;17.70;85.40
1297;DHT22;641;48.492;9.184;2022-08-11T04:28:50;17.60;85.30
1297;DHT22;641;48.492;9.184;2022-08-11T05:09:18;18.30;87.20
1297;DHT22;641;48.492;9.184;2022-08-11T05:14:27;18.40;84.60
1297;DHT22;641;48.492;9.184;2022-08-11T05:17:15;18.50;85.50
1297;DHT22;641;48.492;9.184;2022-08-11T05:20:09;18.60;84.20
1297;DHT22;641;48.492;9.184;2022-08-11T05:22:54;18.80;85.40
1297;DHT22;641;48.492;9.184;2022-08-11T05:25:43;18.70;84.30
1297;DHT22;641;48.492;9.184;2022-08-11T05:28:34;18.80;85.00
1297;DHT22;641;48.492;9.184;2022-08-11T05:31:25;18.80;86.00
1297;DHT22;641;48.492;9.184;2022-08-11T05:34:28;18.80;85.20
1297;DHT22;641;48.492;9.184;2022-08-11T05:40:10;18.70;84.40
1297;DHT22;641;48.492;9.184;2022-08-11T05:43:10;18.70;84.40
1297;DHT22;641;48.492;9.184;2022-08-11T05:46:01;18.80;85.10
1297;DHT22;641;48.492;9.184;2022-08-11T05:48:46;18.80;84.40
1297;DHT22;641;48.492;9.184;2022-08-11T05:51:49;18.80;84.30
1297;DHT22;641;48.492;9.184;2022-08-11T05:54:33;18.90;84.30
1297;DHT22;641;48.492;9.184;2022-08-11T05:57:19;19.00;84.20
1297;DHT22;641;48.492;9.184;2022-08-11T05:59:46;19.10;84.20
1297;DHT22;641;48.492;9.184;2022-08-11T06:02:13;19.10;84.10
1297;DHT22;641;48.492;9.184;2022-08-11T06:04:39;19.10;84.60
1297;DHT22;641;48.492;9.184;2022-08-11T06:07:07;19.20;84.50
1297;DHT22;641;48.492;9.184;2022-08-11T06:09:36;19.20;84.80
1297;DHT22;641;48.492;9.184;2022-08-11T06:12:07;19.20;84.70
1297;DHT22;641;48.492;9.184;2022-08-11T06:14:42;19.30;84.80
1297;DHT22;641;48.492;9.184;2022-08-11T06:17:09;19.40;85.10
1297;DHT22;641;48.492;9.184;2022-08-11T06:19:38;19.60;85.00
1297;DHT22;641;48.492;9.184;2022-08-11T06:22:08;19.90;83.80
1297;DHT22;641;48.492;9.184;2022-08-11T06:24:37;19.90;83.10
1297;DHT22;641;48.492;9.184;2022-08-11T06:27:03;20.10;82.80
1297;DHT22;641;48.492;9.184;2022-08-11T06:29:33;20.20;83.10
1297;DHT22;641;48.492;9.184;2022-08-11T06:32:01;20.30;82.20
1297;DHT22;641;48.492;9.184;2022-08-11T06:43:15;20.70;81.90
1297;DHT22;641;48.492;9.184;2022-08-11T06:46:00;20.80;82.00
1297;DHT22;641;48.492;9.184;2022-08-11T06:48:30;20.90;81.10
1297;DHT22;641;48.492;9.184;2022-08-11T06:51:01;21.10;81.10
1297;DHT22;641;48.492;9.184;2022-08-11T06:53:50;21.30;81.60
1297;DHT22;641;48.492;9.184;2022-08-11T06:56:28;21.50;80.50
1297;DHT22;641;48.492;9.184;2022-08-11T06:59:15;21.60;80.10
1297;DHT22;641;48.492;9.184;2022-08-11T07:14:01;22.00;79.50
1297;DHT22;641;48.492;9.184;2022-08-11T07:16:49;22.20;79.30
1297;DHT22;641;48.492;9.184;2022-08-11T07:19:21;22.40;79.10
1297;DHT22;641;48.492;9.184;2022-08-11T07:22:06;22.50;79.00
1297;DHT22;641;48.492;9.184;2022-08-11T07:25:08;22.70;78.70
1297;DHT22;641;48.492;9.184;2022-08-11T07:30:46;22.90;78.40
1297;DHT22;641;48.492;9.184;2022-08-11T07:33:13;23.00;80.60
1297;DHT22;641;48.492;9.184;2022-08-11T07:35:48;23.00;78.20
1297;DHT22;641;48.492;9.184;2022-08-11T07:38:18;23.20;77.70
1297;DHT22;641;48.492;9.184;2022-08-11T07:40:46;23.50;77.50
1297;DHT22;641;48.492;9.184;2022-08-11T07:43:13;23.70;77.70
1297;DHT22;641;48.492;9.184;2022-08-11T07:45:42;23.90;78.30
1297;DHT22;641;48.492;9.184;2022-08-11T07:48:28;24.20;77.10
1297;DHT22;641;48.492;9.184;2022-08-11T07:51:20;24.30;77.20
1297;DHT22;641;48.492;9.184;2022-08-11T07:54:05;24.50;77.60
1297;DHT22;641;48.492;9.184;2022-08-11T07:56:33;24.60;76.70
1297;DHT22;641;48.492;9.184;2022-08-11T07:58:59;24.60;76.10
1297;DHT22;641;48.492;9.184;2022-08-11T08:01:44;24.80;75.10
1297;DHT22;641;48.492;9.184;2022-08-11T08:04:29;24.90;75.40
1297;DHT22;641;48.492;9.184;2022-08-11T08:07:19;25.00;75.70
1297;DHT22;641;48.492;9.184;2022-08-11T08:10:08;25.10;74.50
1297;DHT22;641;48.492;9.184;2022-08-11T08:12:54;25.10;74.10
1297;DHT22;641;48.492;9.184;2022-08-11T08:15:40;25.10;74.10
1297;DHT22;641;48.492;9.184;2022-08-11T08:18:24;24.90;72.20
1297;DHT22;641;48.492;9.184;2022-08-11T08:20:50;24.80;74.40
1297;DHT22;641;48.492;9.184;2022-08-11T08:23:21;24.60;72.40
1297;DHT22;641;48.492;9.184;2022-08-11T08:25:58;25.00;73.50
1297;DHT22;641;48.492;9.184;2022-08-11T08:28:26;25.40;72.40
1297;DHT22;641;48.492;9.184;2022-08-11T08:30:53;25.40;71.40
1297;DHT22;641;48.492;9.184;2022-08-11T08:33:39;25.40;71.70
1297;DHT22;641;48.492;9.184;2022-08-11T08:36:06;25.50;72.00
1297;DHT22;641;48.492;9.184;2022-08-11T08:38:56;25.40;70.80
1297;DHT22;641;48.492;9.184;2022-08-11T08:41:25;25.30;71.10
1297;DHT22;641;48.492;9.184;2022-08-11T08:43:56;25.60;71.20
1297;DHT22;641;48.492;9.184;2022-08-11T08:46:26;25.70;71.90
1297;DHT22;641;48.492;9.184;2022-08-11T08:48:56;26.00;68.50
1297;DHT22;641;48.492;9.184;2022-08-11T08:51:24;26.00;61.80
1297;DHT22;641;48.492;9.184;2022-08-11T08:54:08;25.80;60.00
1297;DHT22;641;48.492;9.184;2022-08-11T08:56:39;26.00;59.70
1297;DHT22;641;48.492;9.184;2022-08-11T08:59:05;26.20;61.00
1297;DHT22;641;48.492;9.184;2022-08-11T09:01:37;26.40;61.20
1297;DHT22;641;48.492;9.184;2022-08-11T09:04:06;26.40;58.30
1297;DHT22;641;48.492;9.184;2022-08-11T09:06:35;26.00;59.70
1297;DHT22;641;48.492;9.184;2022-08-11T09:09:04;26.40;59.40
1297;DHT22;641;48.492;9.184;2022-08-11T09:11:32;26.60;58.80
1297;DHT22;641;48.492;9.184;2022-08-11T09:14:18;26.80;58.20
1297;DHT22;641;48.492;9.184;2022-08-11T09:16:45;26.70;58.50
1297;DHT22;641;48.492;9.184;2022-08-11T09:19:14;26.60;58.00
1297;DHT22;641;48.492;9.184;2022-08-11T09:21:43;26.90;58.70
1297;DHT22;641;48.492;9.184;2022-08-11T09:24:11;26.80;59.40
1297;DHT22;641;48.492;9.184;2022-08-11T09:26:56;26.80;58.70
1297;DHT22;641;48.492;9.184;2022-08-11T09:29:30;27.20;57.60
1297;DHT22;641;48.492;9.184;2022-08-11T09:31:57;27.10;57.70
1297;DHT22;641;48.492;9.184;2022-08-11T09:34:24;27.20;55.90
1297;DHT22;641;48.492;9.184;2022-08-11T09:36:51;27.20;56.90
1297;DHT22;641;48.492;9.184;2022-08-11T09:39:38;27.30;55.20
1297;DHT22;641;48.492;9.184;2022-08-11T09:42:23;26.60;56.40
1297;DHT22;641;48.492;9.184;2022-08-11T09:45:11;26.60;56.70
1297;DHT22;641;48.492;9.184;2022-08-11T09:47:37;26.70;56.10
1297;DHT22;641;48.492;9.184;2022-08-11T09:50:04;26.60;57.90
1297;DHT22;641;48.492;9.184;2022-08-11T09:52:40;27.00;57.10
1297;DHT22;641;48.492;9.184;2022-08-11T09:55:07;26.70;56.80
1297;DHT22;641;48.492;9.184;2022-08-11T09:57:40;27.10;56.60
1297;DHT22;641;48.492;9.184;2022-08-11T10:00:30;27.30;56.00
1297;DHT22;641;48.492;9.184;2022-08-11T10:02:56;27.40;56.10
1297;DHT22;641;48.492;9.184;2022-08-11T10:05:23;27.10;56.00
1297;DHT22;641;48.492;9.184;2022-08-11T10:08:11;27.30;56.20
1297;DHT22;641;48.492;9.184;2022-08-11T10:10:38;27.40;53.90
1297;DHT22;641;48.492;9.184;2022-08-11T10:13:08;27.30;55.20
1297;DHT22;641;48.492;9.184;2022-08-11T10:15:35;27.60;55.80
1297;DHT22;641;48.492;9.184;2022-08-11T10:18:10;27.80;54.20
1297;DHT22;641;48.492;9.184;2022-08-11T10:21:02;28.00;53.60
1297;DHT22;641;48.492;9.184;2022-08-11T10:23:31;28.10;53.30
1297;DHT22;641;48.492;9.184;2022-08-11T10:26:18;28.20;54.20
1297;DHT22;641;48.492;9.184;2022-08-11T10:29:04;28.00;54.30
1297;DHT22;641;48.492;9.184;2022-08-11T10:31:56;27.90;54.80
1297;DHT22;641;48.492;9.184;2022-08-11T10:34:42;27.80;54.90
1297;DHT22;641;48.492;9.184;2022-08-11T10:37:10;28.00;54.10
1297;DHT22;641;48.492;9.184;2022-08-11T10:39:38;27.90;53.60
1297;DHT22;641;48.492;9.184;2022-08-11T10:42:04;27.90;52.60
1297;DHT22;641;48.492;9.184;2022-08-11T10:44:53;27.70;53.90
1297;DHT22;641;48.492;9.184;2022-08-11T10:47:20;27.40;52.80
1297;DHT22;641;48.492;9.184;2022-08-11T10:50:11;27.00;54.40
1297;DHT22;641;48.492;9.184;2022-08-11T10:52:57;27.20;54.60
1297;DHT22;641;48.492;9.184;2022-08-11T10:55:44;27.50;55.40
1297;DHT22;641;48.492;9.184;2022-08-11T10:58:29;27.70;54.40
1297;DHT22;641;48.492;9.184;2022-08-11T11:01:13;28.10;53.70
1297;DHT22;641;48.492;9.184;2022-08-11T11:03:40;28.00;53.00
1297;DHT22;641;48.492;9.184;2022-08-11T11:09:07;28.30;52.10
1297;DHT22;641;48.492;9.184;2022-08-11T11:11:46;27.70;52.80
1297;DHT22;641;48.492;9.184;2022-08-11T11:14:33;27.80;54.40
1297;DHT22;641;48.492;9.184;2022-08-11T11:17:29;28.20;53.70
1297;DHT22;641;48.492;9.184;2022-08-11T11:20:18;28.40;53.50
1297;DHT22;641;48.492;9.184;2022-08-11T11:22:45;28.70;53.10
1297;DHT22;641;48.492;9.184;2022-08-11T11:33:51;28.50;52.70
1297;DHT22;641;48.492;9.184;2022-08-11T11:36:50;28.30;52.90
1297;DHT22;641;48.492;9.184;2022-08-11T11:39:21;28.40;52.10
1297;DHT22;641;48.492;9.184;2022-08-11T11:41:49;28.60;51.80
1297;DHT22;641;48.492;9.184;2022-08-11T11:44:16;28.60;51.70
1297;DHT22;641;48.492;9.184;2022-08-11T11:46:44;28.80;52.10
1297;DHT22;641;48.492;9.184;2022-08-11T11:49:11;29.10;53.10
1297;DHT22;641;48.492;9.184;2022-08-11T11:51:40;29.20;53.10
1297;DHT22;641;48.492;9.184;2022-08-11T11:54:06;29.10;51.10
1297;DHT22;641;48.492;9.184;2022-08-11T11:56:34;29.20;52.00
1297;DHT22;641;48.492;9.184;2022-08-11T11:59:02;29.20;51.00
1297;DHT22;641;48.492;9.184;2022-08-11T12:01:46;29.00;52.20
1297;DHT22;641;48.492;9.184;2022-08-11T12:04:14;29.00;52.70
1297;DHT22;641;48.492;9.184;2022-08-11T12:06:41;29.20;52.70
1297;DHT22;641;48.492;9.184;2022-08-11T12:09:10;29.40;52.30
1297;DHT22;641;48.492;9.184;2022-08-11T12:11:39;29.20;50.70
1297;DHT22;641;48.492;9.184;2022-08-11T12:14:23;29.10;52.00
1297;DHT22;641;48.492;9.184;2022-08-11T12:16:53;29.40;52.70
1297;DHT22;641;48.492;9.184;2022-08-11T12:19:23;29.40;52.00
1297;DHT22;641;48.492;9.184;2022-08-11T12:21:50;29.50;51.90
1297;DHT22;641;48.492;9.184;2022-08-11T12:24:36;29.80;52.10
1297;DHT22;641;48.492;9.184;2022-08-11T12:27:21;30.00;50.80
1297;DHT22;641;48.492;9.184;2022-08-11T12:29:53;29.90;50.80
1297;DHT22;641;48.492;9.184;2022-08-11T12:32:21;30.10;51.40
1297;DHT22;641;48.492;9.184;2022-08-11T12:34:48;29.80;49.90
1297;DHT22;641;48.492;9.184;2022-08-11T12:37:21;29.10;49.30
1297;DHT22;641;48.492;9.184;2022-08-11T12:39:49;28.90;50.20
1297;DHT22;641;48.492;9.184;2022-08-11T12:42:35;29.20;49.50
1297;DHT22;641;48.492;9.184;2022-08-11T12:45:24;29.00;50.40
1297;DHT22;641;48.492;9.184;2022-08-11T12:48:17;28.80;50.10
1297;DHT22;641;48.492;9.184;2022-08-11T12:51:06;29.10;51.00
1297;DHT22;641;48.492;9.184;2022-08-11T12:54:01;28.80;50.80
1297;DHT22;641;48.492;9.184;2022-08-11T12:56:37;29.00;50.50
1297;DHT22;641;48.492;9.184;2022-08-11T12:59:23;28.70;51.10
1297;DHT22;641;48.492;9.184;2022-08-11T13:02:16;28.80;52.20
1297;DHT22;641;48.492;9.184;2022-08-11T13:05:02;29.30;51.40
1297;DHT22;641;48.492;9.184;2022-08-11T13:07:29;29.70;51.80
1297;DHT22;641;48.492;9.184;2022-08-11T13:09:57;29.40;49.60
1297;DHT22;641;48.492;9.184;2022-08-11T13:12:26;29.40;51.10
1297;DHT22;641;48.492;9.184;2022-08-11T13:17:41;29.60;51.10
1297;DHT22;641;48.492;9.184;2022-08-11T13:20:09;29.40;49.40
1297;DHT22;641;48.492;9.184;2022-08-11T13:22:38;28.90;50.20
1297;DHT22;641;48.492;9.184;2022-08-11T13:25:05;29.10;51.20
1297;DHT22;641;48.492;9.184;2022-08-11T13:27:31;29.10;50.50
1297;DHT22;641;48.492;9.184;2022-08-11T13:29:58;29.40;50.40
1297;DHT22;641;48.492;9.184;2022-08-11T13:32:44;29.60;49.40
1297;DHT22;641;48.492;9.184;2022-08-11T13:35:14;29.50;50.20
1297;DHT22;641;48.492;9.184;2022-08-11T13:37:42;29.30;49.60
1297;DHT22;641;48.492;9.184;2022-08-11T13:40:10;29.20;50.50
1297;DHT22;641;48.492;9.184;2022-08-11T13:42:38;29.20;50.50
1297;DHT22;641;48.492;9.184;2022-08-11T13:45:06;29.60;49.70
1297;DHT22;641;48.492;9.184;2022-08-11T13:47:33;29.70;51.30
1297;DHT22;641;48.492;9.184;2022-08-11T13:49:59;30.00;49.90
1297;DHT22;641;48.492;9.184;2022-08-11T13:52:26;29.50;49.90
1297;DHT22;641;48.492;9.184;2022-08-11T13:54:53;29.70;50.60
1297;DHT22;641;48.492;9.184;2022-08-11T13:57:20;29.80;50.00
1297;DHT22;641;48.492;9.184;2022-08-11T13:59:46;29.70;50.10
1297;DHT22;641;48.492;9.184;2022-08-11T14:02:17;29.40;48.80
1297;DHT22;641;48.492;9.184;2022-08-11T14:07:12;29.30;50.30
1297;DHT22;641;48.492;9.184;2022-08-11T14:09:42;29.50;50.60
1297;DHT22;641;48.492;9.184;2022-08-11T14:12:15;29.70;49.50
1297;DHT22;641;48.492;9.184;2022-08-11T14:15:09;29.90;49.70
1297;DHT22;641;48.492;9.184;2022-08-11T14:17:38;29.90;48.70
1297;DHT22;641;48.492;9.184;2022-08-11T14:20:07;29.70;49.30
1297;DHT22;641;48.492;9.184;2022-08-11T14:22:37;30.00;50.80
1297;DHT22;641;48.492;9.184;2022-08-11T14:25:05;30.10;49.80
1297;DHT22;641;48.492;9.184;2022-08-11T14:27:31;29.80;50.30
1297;DHT22;641;48.492;9.184;2022-08-11T14:29:57;30.00;52.30
1297;DHT22;641;48.492;9.184;2022-08-11T14:32:24;30.20;50.40
1297;DHT22;641;48.492;9.184;2022-08-11T14:34:51;29.70;50.50
1297;DHT22;641;48.492;9.184;2022-08-11T14:37:22;29.50;51.40
1297;DHT22;641;48.492;9.184;2022-08-11T14:39:55;29.80;51.10
1297;DHT22;641;48.492;9.184;2022-08-11T14:42:22;30.20;52.10
1297;DHT22;641;48.492;9.184;2022-08-11T14:45:15;30.30;49.40
1297;DHT22;641;48.492;9.184;2022-08-11T14:48:02;30.10;50.00
1297;DHT22;641;48.492;9.184;2022-08-11T14:50:31;30.30;49.00
1297;DHT22;641;48.492;9.184;2022-08-11T14:53:08;30.20;50.50
1297;DHT22;641;48.492;9.184;2022-08-11T14:55:37;30.20;50.50
1297;DHT22;641;48.492;9.184;2022-08-11T14:58:23;30.10;49.10
1297;DHT22;641;48.492;9.184;2022-08-11T15:00:52;29.40;49.90
1297;DHT22;641;48.492;9.184;2022-08-11T15:03:20;29.60;50.90
1297;DHT22;641;48.492;9.184;2022-08-11T15:08:14;29.50;50.90
1297;DHT22;641;48.492;9.184;2022-08-11T15:10:41;29.50;50.50
1297;DHT22;641;48.492;9.184;2022-08-11T15:13:08;29.80;51.40
1297;DHT22;641;48.492;9.184;2022-08-11T15:15:35;29.70;50.40
1297;DHT22;641;48.492;9.184;2022-08-11T15:18:25;29.40;50.10
1297;DHT22;641;48.492;9.184;2022-08-11T15:20:51;29.70;49.80
1297;DHT22;641;48.492;9.184;2022-08-11T15:23:38;29.90;49.90
1297;DHT22;641;48.492;9.184;2022-08-11T15:26:36;30.20;49.40
1297;DHT22;641;48.492;9.184;2022-08-11T15:29:27;30.50;49.40
1297;DHT22;641;48.492;9.184;2022-08-11T15:32:12;30.60;50.40
1297;DHT22;641;48.492;9.184;2022-08-11T15:34:58;31.40;49.60
1297;DHT22;641;48.492;9.184;2022-08-11T15:37:44;32.20;48.10
1297;DHT22;641;48.492;9.184;2022-08-11T15:40:17;31.60;48.00
1297;DHT22;641;48.492;9.184;2022-08-11T15:43:15;30.90;48.50
1297;DHT22;641;48.492;9.184;2022-08-11T15:46:06;30.80;47.30
1297;DHT22;641;48.492;9.184;2022-08-11T15:51:08;30.80;48.50
1297;DHT22;641;48.492;9.184;2022-08-11T15:53:47;30.90;47.30
1297;DHT22;641;48.492;9.184;2022-08-11T15:56:15;30.90;47.40
1297;DHT22;641;48.492;9.184;2022-08-11T15:58:45;31.60;46.40
1297;DHT22;641;48.492;9.184;2022-08-11T16:01:30;32.20;46.00
1297;DHT22;641;48.492;9.184;2022-08-11T16:04:17;32.30;45.20
1297;DHT22;641;48.492;9.184;2022-08-11T16:07:05;32.10;45.30
1297;DHT22;641;48.492;9.184;2022-08-11T16:09:44;31.60;46.10
1297;DHT22;641;48.492;9.184;2022-08-11T16:12:18;31.00;46.40
1297;DHT22;641;48.492;9.184;2022-08-11T16:14:47;31.30;46.70
1297;DHT22;641;48.492;9.184;2022-08-11T16:17:44;31.40;45.80
1297;DHT22;641;48.492;9.184;2022-08-11T16:20:12;31.30;45.60
1297;DHT22;641;48.492;9.184;2022-08-11T16:22:39;31.20;44.90
1297;DHT22;641;48.492;9.184;2022-08-11T16:25:15;30.90;45.60
1297;DHT22;641;48.492;9.184;2022-08-11T16:27:45;30.70;46.40
1297;DHT22;641;48.492;9.184;2022-08-11T16:30:12;31.50;47.50
1297;DHT22;641;48.492;9.184;2022-08-11T16:32:44;32.30;45.50
1297;DHT22;641;48.492;9.184;2022-08-11T16:35:18;33.30;43.50
1297;DHT22;641;48.492;9.184;2022-08-11T16:38:03;33.60;43.30
1297;DHT22;641;48.492;9.184;2022-08-11T16:40:51;34.20;42.70
1297;DHT22;641;48.492;9.184;2022-08-11T16:43:18;34.80;42.00
1297;DHT22;641;48.492;9.184;2022-08-11T16:46:05;35.00;40.70
1297;DHT22;641;48.492;9.184;2022-08-11T16:48:51;34.30;41.10
1297;DHT22;641;48.492;9.184;2022-08-11T16:51:20;34.30;41.50
1297;DHT22;641;48.492;9.184;2022-08-11T16:53:47;33.60;41.10
1297;DHT22;641;48.492;9.184;2022-08-11T16:59:01;32.90;42.30
1297;DHT22;641;48.492;9.184;2022-08-11T17:01:50;32.60;42.50
1297;DHT22;641;48.492;9.184;2022-08-11T17:07:16;32.60;42.00
1297;DHT22;641;48.492;9.184;2022-08-11T17:10:05;32.60;42.60
1297;DHT22;641;48.492;9.184;2022-08-11T17:12:50;31.70;42.90
1297;DHT22;641;48.492;9.184;2022-08-11T17:15:40;31.50;43.70
1297;DHT22;641;48.492;9.184;2022-08-11T17:18:25;31.40;44.50
1297;DHT22;641;48.492;9.184;2022-08-11T17:21:20;31.40;44.20
1297;DHT22;641;48.492;9.184;2022-08-11T17:23:50;31.00;43.50
1297;DHT22;641;48.492;9.184;2022-08-11T17:26:30;30.80;43.60
1297;DHT22;641;48.492;9.184;2022-08-11T17:29:22;30.70;44.60
1297;DHT22;641;48.492;9.184;2022-08-11T17:31:49;30.60;44.60
1297;DHT22;641;48.492;9.184;2022-08-11T17:34:34;30.50;44.00
1297;DHT22;641;48.492;9.184;2022-08-11T17:37:20;29.80;43.80
1297;DHT22;641;48.492;9.184;2022-08-11T17:39:48;29.50;44.40
1297;DHT22;641;48.492;9.184;2022-08-11T17:42:15;29.60;45.00
1297;DHT22;641;48.492;9.184;2022-08-11T17:45:00;30.00;45.50
1297;DHT22;641;48.492;9.184;2022-08-11T17:47:47;30.40;43.60
1297;DHT22;641;48.492;9.184;2022-08-11T17:50:33;30.70;43.50
1297;DHT22;641;48.492;9.184;2022-08-11T17:53:00;30.90;42.40
1297;DHT22;641;48.492;9.184;2022-08-11T17:55:46;31.00;43.50
1297;DHT22;641;48.492;9.184;2022-08-11T17:58:32;31.00;43.20
1297;DHT22;641;48.492;9.184;2022-08-11T18:01:18;31.00;42.70
1297;DHT22;641;48.492;9.184;2022-08-11T18:03:45;30.90;43.40
1297;DHT22;641;48.492;9.184;2022-08-11T18:06:13;30.60;43.40
1297;DHT22;641;48.492;9.184;2022-08-11T18:08:43;30.40;43.80
1297;DHT22;641;48.492;9.184;2022-08-11T18:11:31;30.20;44.40
1297;DHT22;641;48.492;9.184;2022-08-11T18:14:17;30.00;44.90
1297;DHT22;641;48.492;9.184;2022-08-11T18:17:02;29.80;45.00
1297;DHT22;641;48.492;9.184;2022-08-11T18:19:47;29.70;45.80
1297;DHT22;641;48.492;9.184;2022-08-11T18:22:37;29.50;45.70
1297;DHT22;641;48.492;9.184;2022-08-11T18:25:31;29.40;46.10
1297;DHT22;641;48.492;9.184;2022-08-11T18:28:24;29.30;46.40
1297;DHT22;641;48.492;9.184;2022-08-11T18:31:12;29.20;46.40
1297;DHT22;641;48.492;9.184;2022-08-11T18:34:01;29.10;46.60
1297;DHT22;641;48.492;9.184;2022-08-11T18:37:08;29.00;47.00
1297;DHT22;641;48.492;9.184;2022-08-11T18:40:01;28.90;47.50
1297;DHT22;641;48.492;9.184;2022-08-11T18:42:47;28.80;47.80
1297;DHT22;641;48.492;9.184;2022-08-11T18:45:35;28.70;47.20
1297;DHT22;641;48.492;9.184;2022-08-11T18:48:23;28.60;48.70
1297;DHT22;641;48.492;9.184;2022-08-11T18:51:08;28.60;47.80
1297;DHT22;641;48.492;9.184;2022-08-11T18:53:56;28.50;47.90
1297;DHT22;641;48.492;9.184;2022-08-11T18:56:44;28.40;48.40
1297;DHT22;641;48.492;9.184;2022-08-11T18:59:31;28.30;48.50
1297;DHT22;641;48.492;9.184;2022-08-11T19:02:20;28.20;49.00
1297;DHT22;641;48.492;9.184;2022-08-11T19:05:07;28.10;49.30
1297;DHT22;641;48.492;9.184;2022-08-11T19:07:54;28.00;49.90
1297;DHT22;641;48.492;9.184;2022-08-11T19:10:42;27.90;49.50
1297;DHT22;641;48.492;9.184;2022-08-11T19:13:29;27.80;49.70
1297;DHT22;641;48.492;9.184;2022-08-11T19:16:15;27.80;50.40
1297;DHT22;641;48.492;9.184;2022-08-11T19:19:01;27.70;49.90
1297;DHT22;641;48.492;9.184;2022-08-11T19:21:48;27.60;49.90
1297;DHT22;641;48.492;9.184;2022-08-11T19:24:36;27.50;50.20
1297;DHT22;641;48.492;9.184;2022-08-11T19:27:23;27.40;50.80
1297;DHT22;641;48.492;9.184;2022-08-11T19:30:09;27.30;51.30
1297;DHT22;641;48.492;9.184;2022-08-11T19:32:54;27.30;52.00
1297;DHT22;641;48.492;9.184;2022-08-11T19:35:41;27.10;51.10
1297;DHT22;641;48.492;9.184;2022-08-11T19:38:27;27.00;51.80
1297;DHT22;641;48.492;9.184;2022-08-11T19:41:13;26.80;52.10
1297;DHT22;641;48.492;9.184;2022-08-11T19:43:59;26.60;52.60
1297;DHT22;641;48.492;9.184;2022-08-11T19:46:45;26.30;53.20
1297;DHT22;641;48.492;9.184;2022-08-11T19:49:31;26.10;53.50
1297;DHT22;641;48.492;9.184;2022-08-11T19:52:16;26.00;54.00
1297;DHT22;641;48.492;9.184;2022-08-11T19:55:03;25.70;54.60
1297;DHT22;641;48.492;9.184;2022-08-11T19:57:48;25.60;54.50
1297;DHT22;641;48.492;9.184;2022-08-11T20:00:33;25.50;54.70
1297;DHT22;641;48.492;9.184;2022-08-11T20:03:26;25.60;54.90
1297;DHT22;641;48.492;9.184;2022-08-11T20:06:11;25.50;55.10
1297;DHT22;641;48.492;9.184;2022-08-11T20:08:59;25.50;55.10
1297;DHT22;641;48.492;9.184;2022-08-11T20:11:51;25.40;54.90
1297;DHT22;641;48.492;9.184;2022-08-11T20:14:38;25.40;54.70
1297;DHT22;641;48.492;9.184;2022-08-11T20:17:26;25.40;54.90
1297;DHT22;641;48.492;9.184;2022-08-11T20:20:13;25.30;55.70
1297;DHT22;641;48.492;9.184;2022-08-11T20:23:01;25.30;56.30
1297;DHT22;641;48.492;9.184;2022-08-11T20:25:47;25.20;56.60
1297;DHT22;641;48.492;9.184;2022-08-11T20:28:34;25.20;56.70
1297;DHT22;641;48.492;9.184;2022-08-11T20:31:22;25.10;56.90
1297;DHT22;641;48.492;9.184;2022-08-11T20:34:07;25.00;56.10
1297;DHT22;641;48.492;9.184;2022-08-11T20:36:53;24.90;55.80
1297;DHT22;641;48.492;9.184;2022-08-11T20:39:39;24.90;56.30
1297;DHT22;641;48.492;9.184;2022-08-11T20:42:25;24.90;57.30
1297;DHT22;641;48.492;9.184;2022-08-11T20:45:12;24.80;56.80
1297;DHT22;641;48.492;9.184;2022-08-11T20:47:57;24.70;57.20
1297;DHT22;641;48.492;9.184;2022-08-11T20:50:45;24.50;58.60
1297;DHT22;641;48.492;9.184;2022-08-11T20:53:31;24.40;60.10
1297;DHT22;641;48.492;9.184;2022-08-11T20:56:18;24.40;60.70
1297;DHT22;641;48.492;9.184;2022-08-11T20:59:03;24.30;61.00
1297;DHT22;641;48.492;9.184;2022-08-11T21:01:50;24.30;59.80
1297;DHT22;641;48.492;9.184;2022-08-11T21:04:34;24.20;60.20
1297;DHT22;641;48.492;9.184;2022-08-11T21:07:19;24.00;59.90
1297;DHT22;641;48.492;9.184;2022-08-11T21:10:04;24.00;59.40
1297;DHT22;641;48.492;9.184;2022-08-11T21:12:51;23.80;59.90
1297;DHT22;641;48.492;9.184;2022-08-11T21:15:37;23.70;61.00
1297;DHT22;641;48.492;9.184;2022-08-11T21:18:23;23.40;62.60